< < Back
Terminal Aerodrome Forecast


Current Version              Previous Versions:   1  2  3  4  5  6  7  8  9  

Terminal Aerodrome Forecast

107
FTUS42 KFFC 312336
TAFPDK
TAF
KPDK 312336Z 0100/0124 33010KT P6SM VCSH FEW050
     FM010200 01005KT P6SM FEW250
     FM011600 05006KT P6SM FEW040
     FM012200 02008KT P6SM FEW250=

Latest METAR

351
SAUS70 KWBC 011300 RRO
MTRPDK
METAR KPDK 011253Z VRB04KT 10SM FEW060 SCT100 26/19 A2999 RMK AO2 SLP134
T02610189


USA.gov is the U.S. government's official web portal to all federal, state and local government web resources and services.